Weather reports worldwide

Advertisment
Torino Venaria, Italy (16060): temperature & dewpoint: 09.09.2019 10:00:00 - 15.09.2019 10:00:00 (CEST)Torino Venaria, Italy (16060): wind speed: 09.09.2019 10:00:00 - 15.09.2019 10:00:00 (CEST)Torino Venaria, Italy (16060): wind direction: 09.09.2019 10:00:00 - 15.09.2019 10:00:00 (CEST)Torino Venaria, Italy (16060): reduced air pressure: 09.09.2019 10:00:00 - 15.09.2019 10:00:00 (CEST)
Date & Time tt [°C] td [°C] ff [km/h] ff [kn] dd ppp [hPa]
15.09.2019 10:00:00 - - - - - -
15.09.2019 09:00:00 17,6 17,5 0 0 N 1024,1
15.09.2019 08:00:00 15,3 15,2 2 1 WNW 1024,3
15.09.2019 07:00:00 15,4 15,3 4 2 NW 1023,9
15.09.2019 06:00:00 14,9 14,8 5 3 WNW 1024,4
15.09.2019 05:00:00 14,2 14,1 5 3 W 1024,5
15.09.2019 04:00:00 14,1 14,0 4 2 W 1024,6
15.09.2019 03:00:00 14,0 13,9 4 2 WNW 1025,1
15.09.2019 02:00:00 14,6 14,2 0 0 N 1025,3
15.09.2019 01:00:00 15,7 15,6 0 0 N 1025,4
15.09.2019 00:00:00 15,8 15,7 4 2 W 1025,7
14.09.2019 23:00:00 16,3 15,4 4 2 WNW 1025,6
14.09.2019 22:00:00 17,5 15,6 4 2 NW 1025,0
14.09.2019 21:00:00 18,5 14,3 4 2 WNW 1024,5
14.09.2019 20:00:00 21,8 16,0 2 1 NNE 1023,7
14.09.2019 19:00:00 24,6 15,4 2 1 N 1023,0
14.09.2019 18:00:00 25,6 14,6 4 2 N 1023,0
14.09.2019 17:00:00 26,1 15,1 5 3 ENE 1023,3
14.09.2019 16:00:00 26,4 15,7 5 3 ESE 1023,8
14.09.2019 15:00:00 26,1 15,7 4 2 SSW 1024,5
14.09.2019 14:00:00 25,0 15,5 5 3 NE 1025,1
14.09.2019 13:00:00 24,8 16,2 4 2 SW 1025,5
14.09.2019 12:00:00 23,0 16,2 5 3 ENE 1026,2
14.09.2019 11:00:00 21,2 17,9 5 3 ENE 1026,7
14.09.2019 10:00:00 18,5 18,4 2 1 WNW 1027,0
14.09.2019 09:00:00 14,5 14,4 0 0 N 1027,2
14.09.2019 08:00:00 11,9 11,9 4 2 WNW 1027,1
14.09.2019 07:00:00 11,8 11,8 0 0 N 1026,8
14.09.2019 06:00:00 11,3 11,3 2 1 NW 1026,9
14.09.2019 05:00:00 12,1 12,1 2 1 NW 1026,8
14.09.2019 04:00:00 12,8 12,8 0 0 N 1026,9
14.09.2019 03:00:00 13,1 13,0 0 0 N 1026,9
14.09.2019 02:00:00 13,7 13,5 4 2 NW 1027,3
14.09.2019 01:00:00 14,5 14,3 0 0 N 1027,1
14.09.2019 00:00:00 14,7 14,2 4 2 WNW 1027,2
13.09.2019 23:00:00 16,0 15,1 2 1 W 1027,1
13.09.2019 22:00:00 16,7 14,1 4 2 NW 1026,6
13.09.2019 21:00:00 19,1 15,5 5 3 NW 1026,3
13.09.2019 20:00:00 22,7 13,7 4 2 NE 1025,2
13.09.2019 19:00:00 24,8 14,2 4 2 NNE 1024,7
13.09.2019 18:00:00 25,5 13,6 5 3 NNE 1024,9
13.09.2019 17:00:00 25,6 13,7 5 3 NNE 1025,1
13.09.2019 16:00:00 25,8 14,2 5 3 NE 1025,7
13.09.2019 15:00:00 25,2 13,7 5 3 NE 1026,5
13.09.2019 14:00:00 25,5 15,7 4 2 SW 1026,9
13.09.2019 13:00:00 23,8 15,0 5 3 E 1027,6
13.09.2019 12:00:00 22,3 14,8 5 3 NNE 1028,3
13.09.2019 11:00:00 20,7 15,2 5 3 NE 1028,9
13.09.2019 10:00:00 18,3 17,9 2 1 NNW 1029,1
13.09.2019 09:00:00 14,2 14,1 0 0 N 1029,2
13.09.2019 08:00:00 11,2 11,2 2 1 WNW 1029,3
13.09.2019 07:00:00 11,4 11,4 5 3 NW 1028,9
13.09.2019 06:00:00 11,6 11,6 4 2 NW 1028,4
13.09.2019 05:00:00 11,2 11,0 0 0 N 1028,4
13.09.2019 04:00:00 10,9 10,4 4 2 NW 1028,0
13.09.2019 03:00:00 11,5 11,2 4 2 WNW 1027,7
13.09.2019 02:00:00 12,5 12,2 5 3 WNW 1027,6
13.09.2019 01:00:00 13,1 12,8 8 4 WNW 1027,4
13.09.2019 00:00:00 13,2 11,6 2 1 NW 1027,7
12.09.2019 23:00:00 14,3 12,0 4 2 WNW 1027,5
12.09.2019 22:00:00 16,0 12,3 5 3 WNW 1027,1
12.09.2019 21:00:00 17,5 11,9 5 3 WNW 1026,4
12.09.2019 20:00:00 22,8 13,2 5 3 N 1025,6
12.09.2019 19:00:00 26,4 12,4 4 2 WNW 1024,9
12.09.2019 18:00:00 27,7 12,5 4 2 WNW 1024,5
12.09.2019 17:00:00 27,3 13,6 4 2 WNW 1024,6
12.09.2019 16:00:00 25,9 12,3 5 3 NNE 1025,2
12.09.2019 15:00:00 25,4 12,9 5 3 NNE 1025,5
12.09.2019 14:00:00 24,3 13,4 2 1 N 1026,1
12.09.2019 13:00:00 23,2 13,0 5 3 ESE 1026,7
12.09.2019 12:00:00 21,7 12,5 8 4 NE 1027,0
12.09.2019 11:00:00 20,0 12,5 8 4 ENE 1026,8
12.09.2019 10:00:00 17,5 16,3 2 1 WSW 1026,5
12.09.2019 09:00:00 12,8 12,8 0 0 N 1026,0
12.09.2019 08:00:00 9,4 9,4 4 2 WNW 1025,5
12.09.2019 07:00:00 8,0 7,7 4 2 NW 1025,0
12.09.2019 06:00:00 9,2 9,2 2 1 WNW 1024,3
12.09.2019 05:00:00 9,0 8,8 2 1 W 1023,8
12.09.2019 04:00:00 9,5 9,3 0 0 N 1023,9
12.09.2019 03:00:00 9,8 9,3 4 2 WNW 1023,6
12.09.2019 02:00:00 10,3 9,8 4 2 W 1023,5
12.09.2019 01:00:00 10,9 10,3 4 2 W 1023,3
12.09.2019 00:00:00 12,3 10,9 2 1 NW 1022,9
11.09.2019 23:00:00 13,5 11,0 4 2 NW 1022,3
11.09.2019 22:00:00 15,3 12,4 4 2 NNW 1021,8
11.09.2019 21:00:00 17,1 12,6 8 4 WNW 1020,8
11.09.2019 20:00:00 19,8 10,7 2 1 NNW 1019,4
11.09.2019 19:00:00 24,2 9,7 0 0 N 1018,2
11.09.2019 18:00:00 24,0 9,9 4 2 NNW 1018,1
11.09.2019 17:00:00 25,1 9,8 4 2 S 1017,8
11.09.2019 16:00:00 24,3 9,8 4 2 N 1017,7
11.09.2019 15:00:00 24,2 10,8 5 3 SW 1018,2
11.09.2019 14:00:00 23,1 10,5 9 5 SW 1018,9
11.09.2019 13:00:00 22,4 10,5 4 2 SSW 1019,1
11.09.2019 12:00:00 21,4 11,9 4 2 SW 1019,3
11.09.2019 11:00:00 18,3 11,6 2 1 N 1019,9
11.09.2019 10:00:00 14,9 14,8 4 2 W 1019,6
11.09.2019 09:00:00 11,7 11,7 4 2 W 1019,7
11.09.2019 08:00:00 8,3 8,3 2 1 WNW 1019,9
11.09.2019 07:00:00 8,8 8,8 0 0 N 1019,1
11.09.2019 06:00:00 8,5 8,0 2 1 W 1019,4
11.09.2019 05:00:00 9,8 9,2 4 2 NW 1019,2
11.09.2019 04:00:00 11,1 10,6 0 0 N 1019,0
11.09.2019 03:00:00 12,6 12,4 0 0 N 1019,0
11.09.2019 02:00:00 13,2 13,1 5 3 WNW 1018,8
11.09.2019 01:00:00 13,3 12,9 2 1 S 1018,8
11.09.2019 00:00:00 13,5 12,4 4 2 SW 1018,5
10.09.2019 23:00:00 13,6 12,0 0 0 N 1018,2
10.09.2019 22:00:00 14,5 11,4 4 2 NNW 1017,5
10.09.2019 21:00:00 14,1 11,6 9 5 SW 1017,4
10.09.2019 20:00:00 14,4 12,6 5 3 SSW 1016,7
10.09.2019 19:00:00 15,3 13,3 9 5 WSW 1016,4
10.09.2019 18:00:00 16,4 13,4 4 2 NW 1016,3
10.09.2019 17:00:00 16,5 14,8 5 3 NW 1016,0
10.09.2019 16:00:00 16,1 13,5 4 2 NNW 1015,8
10.09.2019 15:00:00 16,9 12,6 4 2 ENE 1015,7
10.09.2019 14:00:00 16,7 12,8 8 4 ENE 1015,5
10.09.2019 13:00:00 16,5 12,0 8 4 NNE 1015,6
10.09.2019 12:00:00 16,1 11,4 9 5 NNE 1015,4
10.09.2019 11:00:00 15,1 10,5 8 4 NE 1015,0
10.09.2019 10:00:00 15,0 10,6 8 4 NE 1014,6
10.09.2019 09:00:00 13,3 10,8 4 2 NNE 1014,3
10.09.2019 08:00:00 12,6 10,3 4 2 NNE 1013,8
10.09.2019 07:00:00 12,0 10,4 4 2 N 1013,7
10.09.2019 06:00:00 11,4 10,5 2 1 E 1013,2
10.09.2019 05:00:00 11,2 9,8 4 2 W 1013,3
10.09.2019 04:00:00 11,1 8,8 2 1 N 1013,0
10.09.2019 03:00:00 12,1 8,9 2 1 NW 1013,0
10.09.2019 02:00:00 11,7 8,7 0 0 N 1013,0
10.09.2019 01:00:00 12,4 9,6 2 1 NW 1013,1
10.09.2019 00:00:00 12,0 9,0 2 1 WNW 1013,0
09.09.2019 23:00:00 12,8 9,2 2 1 WNW 1012,5
09.09.2019 22:00:00 12,6 7,4 2 1 NW 1012,1
09.09.2019 21:00:00 14,2 7,2 2 1 NW 1011,4
09.09.2019 20:00:00 17,7 7,9 4 2 N 1010,3
09.09.2019 19:00:00 20,4 4,4 4 2 NE 1009,5
09.09.2019 18:00:00 21,5 4,9 5 3 NNE 1009,1
09.09.2019 17:00:00 22,3 5,2 4 2 S 1009,1
09.09.2019 16:00:00 22,2 4,7 5 3 S 1009,3
09.09.2019 15:00:00 21,8 5,2 8 4 SSE 1009,6
09.09.2019 14:00:00 21,2 5,1 5 3 SSW 1010,0
09.09.2019 13:00:00 20,1 5,6 5 3 S 1010,3
09.09.2019 12:00:00 19,0 8,6 4 2 SW 1010,5
09.09.2019 11:00:00 16,3 11,6 4 2 SW 1011,1
09.09.2019 10:00:00 12,3 12,3 2 1 WSW 1011,1

tt = temperature
td = dewpoint
ff = wind speed
dd = wind direction
ppp = reduced air pressure

Next stations